createdAt,value
2022-11-29T00:01:11.259Z,46.00
2022-11-29T00:03:38.777Z,47.07
2022-11-29T00:06:08.620Z,46.20
2022-11-29T00:08:36.879Z,39.37
2022-11-29T00:11:05.901Z,43.80
2022-11-29T00:13:33.317Z,43.03
2022-11-29T00:16:04.672Z,45.33
2022-11-29T00:18:32.334Z,45.63
2022-11-29T00:20:59.962Z,44.20
2022-11-29T00:23:28.800Z,46.30
2022-11-29T00:25:57.217Z,45.33
2022-11-29T00:28:24.656Z,46.63
2022-11-29T00:30:52.094Z,43.10
2022-11-29T00:33:19.595Z,42.73
2022-11-29T00:35:47.036Z,47.57
2022-11-29T00:38:14.684Z,44.77
2022-11-29T00:40:43.454Z,47.70
2022-11-29T00:43:10.896Z,46.97
2022-11-29T00:45:38.532Z,47.70
2022-11-29T00:48:06.238Z,43.00
2022-11-29T00:50:33.735Z,45.03
2022-11-29T00:53:01.138Z,41.83
2022-11-29T00:55:28.659Z,39.30
2022-11-29T00:57:57.388Z,43.77
2022-11-29T01:00:25.003Z,39.20
2022-11-29T01:02:52.432Z,40.63
2022-11-29T01:05:19.962Z,41.53
2022-11-29T01:07:47.486Z,43.50
2022-11-29T01:10:14.976Z,41.83
2022-11-29T01:12:42.403Z,48.90
2022-11-29T01:15:12.113Z,48.27
2022-11-29T01:17:40.590Z,43.23
2022-11-29T01:20:10.016Z,44.07
2022-11-29T01:22:37.688Z,43.50
2022-11-29T01:25:06.933Z,52.33
2022-11-29T01:27:34.871Z,43.60
2022-11-29T01:30:02.474Z,42.73
2022-11-29T01:32:31.900Z,43.60
2022-11-29T01:34:59.587Z,42.70
2022-11-29T01:37:29.128Z,46.67
2022-11-29T01:39:58.706Z,43.73
2022-11-29T01:42:26.235Z,48.03
2022-11-29T01:45:11.047Z,42.03
2022-11-29T01:47:44.014Z,45.13
2022-11-29T01:50:11.507Z,44.83
2022-11-29T01:52:39.040Z,46.30
2022-11-29T01:55:08.260Z,45.30
2022-11-29T01:57:36.355Z,48.83
2022-11-29T02:00:12.539Z,44.03
2022-11-29T02:02:45.988Z,45.97
2022-11-29T02:05:14.621Z,47.57
2022-11-29T02:07:42.844Z,44.63
2022-11-29T02:10:11.060Z,44.13
2022-11-29T02:12:52.481Z,48.73
2022-11-29T02:15:28.743Z,37.30
2022-11-29T02:18:05.573Z,50.13
2022-11-29T02:21:06.560Z,50.37
2022-11-29T02:24:15.619Z,47.97
2022-11-29T02:27:07.635Z,44.77
2022-11-29T02:30:07.786Z,37.03
2022-11-29T02:32:54.558Z,45.73
2022-11-29T02:35:36.810Z,43.20
2022-11-29T02:38:20.565Z,43.50
2022-11-29T02:41:00.774Z,45.83
2022-11-29T02:43:41.030Z,48.77
2022-11-29T02:46:21.478Z,39.60
2022-11-29T02:48:58.808Z,44.93
2022-11-29T02:51:30.650Z,43.40
2022-11-29T02:54:03.003Z,46.03
2022-11-29T02:56:35.872Z,45.73
2022-11-29T02:59:10.651Z,47.87
2022-11-29T03:01:42.762Z,47.70
2022-11-29T03:04:16.706Z,44.60
2022-11-29T03:06:48.731Z,44.70
2022-11-29T03:09:23.264Z,43.80
2022-11-29T03:11:56.052Z,47.27
2022-11-29T03:14:25.489Z,48.33
2022-11-29T03:17:01.473Z,42.40
2022-11-29T03:19:48.910Z,47.17
2022-11-29T03:22:21.908Z,43.60
2022-11-29T03:24:54.137Z,49.77
2022-11-29T03:27:24.904Z,49.50
2022-11-29T03:29:57.754Z,59.67
2022-11-29T03:32:29.660Z,44.70
2022-11-29T03:35:03.642Z,54.57
2022-11-29T03:37:39.187Z,54.50
2022-11-29T03:40:09.816Z,50.07
2022-11-29T03:42:40.667Z,60.73
2022-11-29T03:45:12.820Z,50.77
2022-11-29T03:47:57.095Z,52.50
2022-11-29T03:50:28.158Z,56.70
2022-11-29T03:52:57.496Z,49.00
2022-11-29T03:55:32.963Z,63.87
2022-11-29T03:58:09.695Z,50.97
2022-11-29T04:00:57.746Z,82.90
2022-11-29T04:03:34.252Z,68.13
2022-11-29T04:06:11.967Z,63.47
2022-11-29T04:09:01.860Z,60.20
2022-11-29T04:11:59.076Z,69.93
2022-11-29T04:14:33.397Z,85.47
2022-11-29T04:17:27.947Z,59.93
2022-11-29T04:20:11.830Z,70.20
2022-11-29T04:23:07.848Z,67.90
2022-11-29T04:25:50.155Z,69.10
2022-11-29T04:28:37.434Z,67.33
2022-11-29T04:31:11.399Z,65.33
2022-11-29T04:34:05.905Z,57.87
2022-11-29T04:36:49.656Z,70.97
2022-11-29T04:39:42.629Z,69.30
2022-11-29T04:42:32.634Z,59.67
2022-11-29T04:45:36.079Z,71.57
2022-11-29T04:48:15.839Z,63.03
2022-11-29T04:50:49.091Z,73.07
2022-11-29T04:53:31.389Z,70.90
2022-11-29T04:56:07.338Z,79.63
2022-11-29T04:58:38.974Z,75.50
2022-11-29T05:01:13.273Z,99.80
2022-11-29T05:03:46.706Z,92.57
2022-11-29T05:06:20.426Z,91.20
2022-11-29T05:08:58.690Z,79.47
2022-11-29T05:11:36.187Z,90.30
2022-11-29T05:14:09.768Z,73.73
2022-11-29T05:16:48.046Z,71.93
2022-11-29T05:19:44.543Z,89.63
2022-11-29T05:22:22.095Z,65.47
2022-11-29T05:24:54.562Z,102.57
2022-11-29T05:27:30.122Z,121.67
2022-11-29T05:30:01.488Z,97.50
2022-11-29T05:32:35.148Z,108.17
2022-11-29T05:35:26.952Z,143.17
2022-11-29T05:37:56.928Z,115.97
2022-11-29T05:40:41.958Z,134.80
2022-11-29T05:43:23.299Z,154.27
2022-11-29T05:45:53.772Z,152.57
2022-11-29T05:48:27.542Z,120.57
2022-11-29T05:51:03.880Z,125.60
2022-11-29T05:53:36.240Z,170.27
2022-11-29T05:56:07.610Z,131.17
2022-11-29T05:58:44.040Z,178.67
2022-11-29T06:01:19.283Z,146.73
2022-11-29T06:03:54.538Z,178.47
2022-11-29T06:06:29.971Z,227.97
2022-11-29T06:09:01.355Z,160.63
2022-11-29T06:11:32.084Z,168.53
2022-11-29T06:14:05.814Z,119.37
2022-11-29T06:16:44.865Z,130.60
2022-11-29T06:19:33.294Z,164.70
2022-11-29T06:22:09.379Z,199.17
2022-11-29T06:24:53.367Z,197.73
2022-11-29T06:27:37.164Z,190.90
2022-11-29T06:30:09.626Z,217.73
2022-11-29T06:32:43.910Z,91.87
2022-11-29T06:35:20.759Z,82.90
2022-11-29T06:37:50.392Z,211.50
2022-11-29T06:40:18.267Z,163.70
2022-11-29T06:42:45.862Z,145.93
2022-11-29T06:45:17.357Z,153.03
2022-11-29T06:47:47.020Z,152.43
2022-11-29T06:50:30.422Z,195.83
2022-11-29T06:53:03.095Z,135.70
2022-11-29T06:55:38.984Z,154.20
2022-11-29T06:58:14.156Z,94.80
2022-11-29T07:00:48.473Z,127.27
2022-11-29T07:03:26.410Z,102.90
2022-11-29T07:05:54.262Z,129.00
2022-11-29T07:08:24.101Z,163.83
2022-11-29T07:10:55.438Z,167.20
2022-11-29T07:13:23.807Z,216.97
2022-11-29T07:15:57.486Z,145.17
2022-11-29T07:18:31.101Z,158.37
2022-11-29T07:21:07.964Z,135.47
2022-11-29T07:23:37.084Z,98.33
2022-11-29T07:26:14.948Z,114.83
2022-11-29T07:28:49.455Z,104.63
2022-11-29T07:31:28.567Z,80.43
2022-11-29T07:34:00.188Z,94.23
2022-11-29T07:36:35.352Z,71.50
2022-11-29T07:39:13.348Z,77.53
2022-11-29T07:41:45.883Z,70.83
2022-11-29T07:44:21.164Z,75.93
2022-11-29T07:46:49.952Z,72.07
2022-11-29T07:49:17.453Z,64.40
2022-11-29T07:51:44.848Z,75.03
2022-11-29T07:54:14.327Z,64.20
2022-11-29T07:56:41.767Z,72.87
2022-11-29T07:59:12.687Z,76.60
2022-11-29T08:01:40.558Z,81.87
2022-11-29T08:04:09.851Z,81.70
2022-11-29T08:06:37.416Z,75.50
2022-11-29T08:09:06.705Z,85.40
2022-11-29T08:11:34.126Z,106.83
2022-11-29T08:14:02.722Z,103.60
2022-11-29T08:16:30.433Z,87.33
2022-11-29T08:18:57.992Z,69.80
2022-11-29T08:21:27.084Z,89.93
2022-11-29T08:23:54.536Z,71.27
2022-11-29T08:26:25.598Z,63.07
2022-11-29T08:28:55.755Z,62.07
2022-11-29T08:31:23.367Z,62.80
2022-11-29T08:33:50.947Z,54.03
2022-11-29T08:36:20.885Z,55.83
2022-11-29T08:38:50.998Z,51.53
2022-11-29T08:41:20.085Z,46.87
2022-11-29T08:43:47.491Z,47.33
2022-11-29T08:46:18.603Z,48.50
2022-11-29T08:48:46.619Z,43.40
2022-11-29T08:51:14.872Z,42.77
2022-11-29T08:53:41.338Z,38.93
2022-11-29T08:56:53.381Z,48.47
2022-11-29T08:58:58.757Z,40.87
2022-11-29T09:01:26.387Z,39.37
2022-11-29T09:04:07.563Z,37.83
2022-11-29T09:06:38.390Z,38.37
2022-11-29T09:09:06.164Z,46.90
2022-11-29T09:11:36.011Z,37.90
2022-11-29T09:14:05.542Z,45.30
2022-11-29T09:16:35.094Z,32.87
2022-11-29T09:19:03.336Z,33.67
2022-11-29T09:21:32.587Z,31.47
2022-11-29T09:24:00.914Z,37.63
2022-11-29T09:26:29.685Z,32.60
2022-11-29T09:29:00.967Z,33.10
2022-11-29T09:31:28.747Z,39.77
2022-11-29T09:33:56.721Z,41.97
2022-11-29T09:36:28.587Z,35.00
2022-11-29T09:38:56.545Z,39.97
2022-11-29T09:41:35.783Z,41.43
2022-11-29T09:44:08.966Z,38.80
2022-11-29T09:46:43.486Z,48.00
2022-11-29T09:49:21.164Z,45.93
2022-11-29T09:51:54.380Z,41.80
2022-11-29T09:54:26.880Z,46.93
2022-11-29T09:56:56.038Z,47.40
2022-11-29T09:59:28.857Z,46.67
2022-11-29T10:02:01.314Z,46.30
2022-11-29T10:04:32.066Z,45.70
2022-11-29T10:07:02.283Z,42.43
2022-11-29T10:09:34.202Z,48.97
2022-11-29T10:12:08.355Z,47.23
2022-11-29T10:14:42.270Z,51.70
2022-11-29T10:17:18.260Z,48.87
2022-11-29T10:19:47.959Z,48.70
2022-11-29T10:22:18.918Z,49.53
2022-11-29T10:24:48.432Z,45.47
2022-11-29T10:27:21.236Z,47.97
2022-11-29T10:29:51.096Z,49.17
2022-11-29T10:32:21.193Z,46.27
2022-11-29T10:34:48.824Z,43.40
2022-11-29T10:37:19.438Z,42.50
2022-11-29T10:39:48.615Z,40.87
2022-11-29T10:42:35.808Z,43.57
2022-11-29T10:45:06.034Z,42.43
2022-11-29T10:47:35.305Z,39.30
2022-11-29T10:50:03.517Z,43.97
2022-11-29T10:52:30.964Z,39.43
2022-11-29T10:54:59.627Z,43.13
2022-11-29T10:57:27.100Z,47.10
2022-11-29T11:00:03.732Z,44.37
2022-11-29T11:02:32.695Z,51.60
2022-11-29T11:05:00.799Z,43.00
2022-11-29T11:07:30.470Z,44.73
2022-11-29T11:09:58.946Z,51.03
2022-11-29T11:12:31.242Z,39.93
2022-11-29T11:15:17.339Z,38.20
2022-11-29T11:17:58.472Z,38.23
2022-11-29T11:20:30.258Z,36.50
2022-11-29T11:23:00.483Z,36.53
2022-11-29T11:25:34.511Z,35.00
2022-11-29T11:28:15.359Z,37.07
2022-11-29T11:30:51.122Z,39.00
2022-11-29T11:33:22.162Z,40.13
2022-11-29T11:36:04.068Z,31.57
2022-11-29T11:38:32.011Z,32.23
2022-11-29T11:41:05.311Z,31.33
2022-11-29T11:43:33.443Z,30.40
2022-11-29T11:46:00.938Z,33.30
2022-11-29T11:48:29.978Z,32.63
2022-11-29T11:51:00.480Z,30.50
2022-11-29T11:53:30.396Z,29.33
2022-11-29T11:56:01.028Z,28.63
2022-11-29T11:58:30.183Z,28.37
2022-11-29T12:01:04.404Z,29.77
2022-11-29T12:03:38.092Z,28.73
2022-11-29T12:06:34.720Z,27.70
2022-11-29T12:09:06.671Z,28.37
2022-11-29T12:11:40.745Z,30.50
2022-11-29T12:14:08.879Z,32.60
2022-11-29T12:16:39.080Z,32.43
2022-11-29T12:19:21.499Z,34.87
2022-11-29T12:21:53.075Z,34.97
2022-11-29T12:24:24.749Z,42.87
2022-11-29T12:26:57.967Z,40.70
2022-11-29T12:29:28.100Z,40.33
2022-11-29T12:32:01.154Z,38.27
2022-11-29T12:34:54.568Z,39.47
2022-11-29T12:37:26.567Z,39.20
2022-11-29T12:39:58.039Z,42.40
2022-11-29T12:42:35.904Z,42.33
2022-11-29T12:45:15.257Z,39.43
2022-11-29T12:47:52.105Z,50.03
2022-11-29T13:18:03.506Z,38.00
2022-11-29T13:20:34.924Z,38.57
2022-11-29T13:23:09.043Z,45.73
2022-11-29T13:25:38.534Z,41.27
2022-11-29T13:28:07.708Z,42.37
2022-11-29T13:30:36.446Z,39.93
2022-11-29T13:33:06.761Z,33.27
2022-11-29T13:35:39.773Z,45.10
2022-11-29T13:38:14.456Z,44.07
2022-11-29T13:40:49.960Z,46.73
2022-11-29T13:43:21.866Z,42.77
2022-11-29T13:45:54.286Z,36.27
2022-11-29T13:48:30.198Z,38.20
2022-11-29T13:50:58.262Z,43.27
2022-11-29T13:53:31.670Z,35.20
2022-11-29T13:56:01.610Z,42.47
2022-11-29T13:58:37.310Z,36.97
2022-11-29T14:01:08.179Z,39.30
2022-11-29T14:03:38.336Z,42.87
2022-11-29T14:06:15.072Z,41.53
2022-11-29T14:09:19.451Z,44.57
2022-11-29T14:11:49.958Z,40.57
2022-11-29T14:14:25.715Z,40.33
2022-11-29T14:16:54.673Z,41.50
2022-11-29T14:19:30.090Z,38.10
2022-11-29T14:22:25.455Z,37.67
2022-11-29T14:25:49.749Z,41.03
2022-11-29T14:28:31.534Z,37.90
2022-11-29T14:31:01.361Z,37.93
2022-11-29T14:33:43.334Z,46.93
2022-11-29T14:36:38.093Z,41.77
2022-11-29T14:39:15.663Z,40.27
2022-11-29T14:41:53.372Z,39.13
2022-11-29T14:44:24.059Z,41.50
2022-11-29T14:47:01.322Z,64.13
2022-11-29T14:49:29.627Z,38.77
2022-11-29T14:52:18.646Z,40.87
2022-11-29T14:54:55.797Z,37.97
2022-11-29T14:58:07.455Z,40.00
2022-11-29T15:00:42.585Z,37.67
2022-11-29T15:03:12.839Z,42.77
2022-11-29T15:05:42.483Z,49.70
2022-11-29T15:08:15.575Z,36.70
2022-11-29T15:10:44.765Z,40.07
2022-11-29T15:13:15.124Z,47.37
2022-11-29T15:15:54.469Z,37.73
2022-11-29T15:18:34.499Z,39.33
2022-11-29T15:21:14.300Z,44.07
2022-11-29T15:23:42.623Z,38.87
2022-11-29T15:26:17.256Z,41.67
2022-11-29T15:28:45.136Z,45.60
2022-11-29T15:31:17.987Z,33.30
2022-11-29T15:33:47.950Z,35.50
2022-11-29T15:36:18.361Z,40.47
2022-11-29T15:38:47.599Z,30.87
2022-11-29T15:41:22.900Z,41.37
2022-11-29T15:43:54.197Z,51.10
2022-11-29T15:46:26.762Z,32.20
2022-11-29T15:48:54.463Z,37.63
2022-11-29T15:51:26.909Z,41.43
2022-11-29T15:54:11.568Z,39.37
2022-11-29T15:56:43.582Z,36.70
2022-11-29T15:59:17.050Z,31.60
2022-11-29T16:01:47.499Z,51.00
2022-11-29T16:04:18.977Z,41.30
2022-11-29T16:06:46.838Z,40.67
2022-11-29T16:09:16.786Z,40.50
2022-11-29T16:11:44.439Z,36.70
2022-11-29T16:14:18.758Z,50.27
2022-11-29T16:16:49.066Z,44.43
2022-11-29T16:19:24.263Z,46.80
2022-11-29T16:22:03.227Z,45.63
2022-11-29T16:24:31.875Z,44.97
2022-11-29T16:27:01.022Z,47.10
2022-11-29T16:29:31.271Z,42.67
2022-11-29T16:32:16.151Z,47.30
2022-11-29T16:34:44.456Z,36.70
2022-11-29T16:37:18.480Z,41.40
2022-11-29T16:39:47.363Z,41.03
2022-11-29T16:42:21.923Z,37.97
2022-11-29T16:44:59.217Z,46.13
2022-11-29T16:47:29.680Z,36.17
2022-11-29T16:50:13.472Z,39.10
2022-11-29T16:52:41.024Z,38.67
2022-11-29T16:55:08.846Z,41.87
2022-11-29T16:57:36.539Z,45.20
2022-11-29T17:00:11.608Z,41.17
2022-11-29T17:02:40.504Z,41.93
2022-11-29T17:05:09.353Z,46.47
2022-11-29T17:07:39.102Z,40.13
2022-11-29T17:10:08.309Z,41.50
2022-11-29T17:12:35.919Z,45.17
2022-11-29T17:15:03.397Z,47.57
2022-11-29T17:17:31.180Z,41.60
2022-11-29T17:19:59.927Z,36.23
2022-11-29T17:22:27.452Z,35.77
2022-11-29T17:24:55.044Z,45.07
2022-11-29T17:27:22.447Z,45.83
2022-11-29T17:29:49.908Z,37.23
2022-11-29T17:32:18.431Z,57.13
2022-11-29T17:34:48.393Z,48.00
2022-11-29T17:37:17.432Z,41.43
2022-11-29T17:39:47.834Z,44.33
2022-11-29T17:42:15.595Z,34.80
2022-11-29T17:44:43.166Z,42.37
2022-11-29T17:47:10.584Z,37.27
2022-11-29T17:49:37.966Z,42.00
2022-11-29T17:52:07.619Z,36.30
2022-11-29T17:54:36.491Z,38.33
2022-11-29T17:57:04.743Z,36.43
2022-11-29T17:59:32.477Z,42.80
2022-11-29T18:02:02.020Z,37.63
2022-11-29T18:04:32.665Z,40.67
2022-11-29T18:07:03.044Z,39.03
2022-11-29T18:09:30.698Z,36.50
2022-11-29T18:11:59.492Z,32.83
2022-11-29T18:14:28.110Z,34.87
2022-11-29T18:16:55.806Z,34.07
2022-11-29T18:19:24.560Z,35.17
2022-11-29T18:21:52.329Z,34.87
2022-11-29T18:24:20.116Z,31.70
2022-11-29T18:26:47.647Z,32.77
2022-11-29T18:29:16.483Z,34.20
2022-11-29T18:31:49.879Z,32.83
2022-11-29T18:34:17.475Z,33.87
2022-11-29T18:36:46.582Z,40.80
2022-11-29T18:39:16.934Z,36.70
2022-11-29T18:41:46.359Z,35.47
2022-11-29T18:44:16.982Z,31.57
2022-11-29T18:46:48.553Z,35.00
2022-11-29T18:49:17.297Z,32.03
2022-11-29T18:51:46.091Z,38.50
2022-11-29T18:54:19.163Z,34.90
2022-11-29T18:56:47.208Z,31.13
2022-11-29T18:59:17.830Z,27.10
2022-11-29T19:01:47.730Z,29.17
2022-11-29T19:04:17.315Z,25.03
2022-11-29T19:06:45.871Z,25.07
2022-11-29T19:09:15.330Z,28.10
2022-11-29T19:11:43.201Z,26.20
2022-11-29T19:14:12.477Z,28.57
2022-11-29T19:16:42.894Z,24.80
2022-11-29T19:19:10.782Z,25.27
2022-11-29T19:21:39.573Z,25.13
2022-11-29T19:24:13.775Z,28.53
2022-11-29T19:26:42.832Z,24.90
2022-11-29T19:29:11.899Z,30.03
2022-11-29T19:31:41.047Z,24.93
2022-11-29T19:34:10.627Z,24.40
2022-11-29T19:36:42.436Z,25.03
2022-11-29T19:39:14.309Z,22.97
2022-11-29T19:41:42.890Z,24.27
2022-11-29T19:44:10.942Z,25.87
2022-11-29T19:46:39.875Z,23.50
2022-11-29T19:49:09.962Z,22.37
2022-11-29T19:51:37.545Z,22.97
2022-11-29T19:54:07.582Z,22.13
2022-11-29T19:56:35.136Z,22.40
2022-11-29T19:59:02.649Z,22.00
2022-11-29T20:01:39.396Z,22.57
2022-11-29T20:04:13.825Z,23.50
2022-11-29T20:06:41.973Z,21.80
2022-11-29T20:09:09.633Z,21.73
2022-11-29T20:11:38.729Z,24.53
2022-11-29T20:14:06.901Z,30.60
2022-11-29T20:16:34.379Z,33.07
2022-11-29T20:19:10.649Z,24.97
2022-11-29T20:21:42.090Z,26.47
2022-11-29T20:24:10.167Z,23.30
2022-11-29T20:26:39.711Z,23.40
2022-11-29T20:29:08.549Z,25.90
2022-11-29T20:31:37.621Z,29.63
2022-11-29T20:34:06.414Z,25.13
2022-11-29T20:36:43.717Z,24.40
2022-11-29T20:39:24.526Z,28.30
2022-11-29T20:42:10.319Z,25.87
2022-11-29T20:44:39.387Z,29.97
2022-11-29T20:47:13.599Z,24.27
2022-11-29T20:49:41.382Z,24.43
2022-11-29T20:52:13.203Z,28.03
2022-11-29T20:54:40.643Z,29.23
2022-11-29T20:57:09.091Z,32.60
2022-11-29T20:59:36.604Z,27.40
2022-11-29T21:02:04.042Z,29.83
2022-11-29T21:04:31.492Z,24.97
2022-11-29T21:06:58.880Z,30.67
2022-11-29T21:09:28.558Z,28.30
2022-11-29T21:11:56.595Z,32.47
2022-11-29T21:14:24.802Z,29.57
2022-11-29T21:16:55.644Z,29.23
2022-11-29T21:19:25.841Z,35.90
2022-11-29T21:22:01.947Z,33.43
2022-11-29T21:24:37.496Z,32.03
2022-11-29T21:27:05.484Z,32.50
2022-11-29T21:29:33.428Z,30.70
2022-11-29T21:32:01.931Z,35.00
2022-11-29T21:34:31.109Z,40.57
2022-11-29T21:36:59.880Z,31.20
2022-11-29T21:39:34.192Z,35.87
2022-11-29T21:42:01.844Z,36.83
2022-11-29T21:44:31.349Z,34.53
2022-11-29T21:46:58.975Z,35.97
2022-11-29T21:49:29.552Z,36.90
2022-11-29T21:51:59.987Z,40.33
2022-11-29T21:54:30.559Z,34.17
2022-11-29T21:56:59.726Z,35.00
2022-11-29T21:59:28.603Z,31.97
2022-11-29T22:01:58.171Z,35.33
2022-11-29T22:04:25.991Z,35.87
2022-11-29T22:06:53.420Z,38.63
2022-11-29T22:09:23.392Z,35.63
2022-11-29T22:11:51.064Z,29.90
2022-11-29T22:14:19.899Z,31.10
2022-11-29T22:16:48.912Z,31.63
2022-11-29T22:19:18.563Z,37.57
2022-11-29T22:21:50.673Z,37.20
2022-11-29T22:24:19.126Z,43.67
2022-11-29T22:26:46.895Z,39.17
2022-11-29T22:29:14.750Z,40.77
2022-11-29T22:31:43.969Z,37.80
2022-11-29T22:34:11.490Z,39.03
2022-11-29T22:36:39.487Z,42.27
2022-11-29T22:39:08.680Z,42.23
2022-11-29T22:41:37.643Z,38.80
2022-11-29T22:44:05.866Z,40.30
2022-11-29T22:46:36.233Z,43.90
2022-11-29T22:49:05.065Z,41.90
2022-11-29T22:51:35.490Z,37.97
2022-11-29T22:54:04.506Z,46.97
2022-11-29T22:56:33.610Z,44.20
2022-11-29T22:59:01.370Z,52.73
2022-11-29T23:01:35.480Z,41.70
2022-11-29T23:04:07.001Z,44.87
2022-11-29T23:06:36.222Z,39.30
2022-11-29T23:09:06.667Z,41.60
2022-11-29T23:11:37.136Z,44.80
2022-11-29T23:14:04.878Z,48.50
2022-11-29T23:16:32.696Z,40.07
2022-11-29T23:19:02.637Z,42.30
2022-11-29T23:21:34.139Z,40.13
2022-11-29T23:24:02.346Z,43.40
2022-11-29T23:26:31.707Z,36.97
2022-11-29T23:29:01.508Z,44.60
2022-11-29T23:31:35.005Z,42.70
2022-11-29T23:34:05.537Z,40.80
2022-11-29T23:36:34.502Z,46.40
2022-11-29T23:39:05.810Z,35.03
2022-11-29T23:41:33.267Z,41.50
2022-11-29T23:44:00.735Z,40.20
2022-11-29T23:46:30.220Z,42.30
2022-11-29T23:48:58.099Z,43.13
2022-11-29T23:51:25.593Z,41.50
2022-11-29T23:53:56.658Z,49.87
2022-11-29T23:56:24.278Z,42.07
2022-11-29T23:58:56.231Z,41.40
